sensor_id;sensor_type;location;lat;lon;timestamp;P1;durP1;ratioP1;P2;durP2;ratioP2
84670;SDS011;74898;42.716;23.624;2024-03-23T00:55:58;14.70;;;5.07;;
84670;SDS011;74898;42.716;23.624;2024-03-23T00:58:24;9.65;;;4.25;;
84670;SDS011;74898;42.716;23.624;2024-03-23T01:00:50;14.43;;;4.80;;
84670;SDS011;74898;42.716;23.624;2024-03-23T01:03:15;14.82;;;5.18;;
84670;SDS011;74898;42.716;23.624;2024-03-23T01:05:41;13.68;;;4.53;;
84670;SDS011;74898;42.716;23.624;2024-03-23T01:08:06;8.50;;;4.45;;
84670;SDS011;74898;42.716;23.624;2024-03-23T01:10:32;9.35;;;4.70;;
84670;SDS011;74898;42.716;23.624;2024-03-23T01:12:57;10.57;;;4.65;;
84670;SDS011;74898;42.716;23.624;2024-03-23T01:15:23;8.68;;;4.22;;
84670;SDS011;74898;42.716;23.624;2024-03-23T01:17:48;8.13;;;3.60;;
84670;SDS011;74898;42.716;23.624;2024-03-23T01:20:14;4.85;;;2.88;;
84670;SDS011;74898;42.716;23.624;2024-03-23T01:22:39;6.55;;;3.75;;
84670;SDS011;74898;42.716;23.624;2024-03-23T01:25:05;7.32;;;3.55;;
84670;SDS011;74898;42.716;23.624;2024-03-23T01:27:31;8.82;;;3.88;;
84670;SDS011;74898;42.716;23.624;2024-03-23T01:29:56;11.70;;;4.05;;
84670;SDS011;74898;42.716;23.624;2024-03-23T01:32:22;8.52;;;3.75;;
84670;SDS011;74898;42.716;23.624;2024-03-23T01:34:47;6.97;;;3.17;;
84670;SDS011;74898;42.716;23.624;2024-03-23T01:37:13;8.75;;;4.20;;
84670;SDS011;74898;42.716;23.624;2024-03-23T01:39:38;10.70;;;4.10;;
84670;SDS011;74898;42.716;23.624;2024-03-23T01:42:04;6.53;;;3.53;;
84670;SDS011;74898;42.716;23.624;2024-03-23T01:44:29;7.45;;;3.65;;
84670;SDS011;74898;42.716;23.624;2024-03-23T01:46:55;7.50;;;3.78;;
84670;SDS011;74898;42.716;23.624;2024-03-23T01:49:20;9.77;;;4.25;;
84670;SDS011;74898;42.716;23.624;2024-03-23T01:51:46;12.25;;;5.10;;
84670;SDS011;74898;42.716;23.624;2024-03-23T01:54:12;18.25;;;7.15;;
84670;SDS011;74898;42.716;23.624;2024-03-23T01:56:37;13.52;;;6.10;;
84670;SDS011;74898;42.716;23.624;2024-03-23T01:59:06;17.20;;;6.05;;
84670;SDS011;74898;42.716;23.624;2024-03-23T02:01:32;8.30;;;3.97;;
84670;SDS011;74898;42.716;23.624;2024-03-23T02:04:01;6.63;;;3.10;;
84670;SDS011;74898;42.716;23.624;2024-03-23T02:06:26;9.68;;;3.08;;
84670;SDS011;74898;42.716;23.624;2024-03-23T02:08:53;8.55;;;4.20;;
84670;SDS011;74898;42.716;23.624;2024-03-23T02:11:19;4.30;;;2.85;;
84670;SDS011;74898;42.716;23.624;2024-03-23T02:13:45;6.18;;;3.05;;
84670;SDS011;74898;42.716;23.624;2024-03-23T02:16:10;5.38;;;3.22;;
84670;SDS011;74898;42.716;23.624;2024-03-23T02:18:36;4.28;;;2.33;;
84670;SDS011;74898;42.716;23.624;2024-03-23T02:21:02;7.82;;;2.72;;
84670;SDS011;74898;42.716;23.624;2024-03-23T02:23:28;3.85;;;2.50;;
84670;SDS011;74898;42.716;23.624;2024-03-23T02:25:53;3.42;;;1.90;;
84670;SDS011;74898;42.716;23.624;2024-03-23T02:28:19;8.02;;;3.00;;
84670;SDS011;74898;42.716;23.624;2024-03-23T02:30:45;6.15;;;2.97;;
84670;SDS011;74898;42.716;23.624;2024-03-23T02:33:11;6.50;;;3.15;;
84670;SDS011;74898;42.716;23.624;2024-03-23T02:35:36;4.40;;;2.22;;
84670;SDS011;74898;42.716;23.624;2024-03-23T02:38:02;6.82;;;3.22;;
84670;SDS011;74898;42.716;23.624;2024-03-23T02:40:28;6.72;;;3.53;;
84670;SDS011;74898;42.716;23.624;2024-03-23T02:42:54;6.43;;;3.28;;
84670;SDS011;74898;42.716;23.624;2024-03-23T02:45:20;6.93;;;3.20;;
84670;SDS011;74898;42.716;23.624;2024-03-23T02:47:45;7.30;;;3.55;;
84670;SDS011;74898;42.716;23.624;2024-03-23T02:50:11;8.02;;;3.17;;
84670;SDS011;74898;42.716;23.624;2024-03-23T02:52:36;6.20;;;3.33;;
84670;SDS011;74898;42.716;23.624;2024-03-23T02:55:03;11.00;;;3.80;;
84670;SDS011;74898;42.716;23.624;2024-03-23T02:57:29;11.15;;;3.90;;
84670;SDS011;74898;42.716;23.624;2024-03-23T02:59:55;6.13;;;3.35;;
84670;SDS011;74898;42.716;23.624;2024-03-23T03:02:20;6.95;;;3.10;;
84670;SDS011;74898;42.716;23.624;2024-03-23T03:04:46;8.45;;;3.58;;
84670;SDS011;74898;42.716;23.624;2024-03-23T03:07:12;8.57;;;3.22;;
84670;SDS011;74898;42.716;23.624;2024-03-23T03:09:38;6.45;;;2.95;;
84670;SDS011;74898;42.716;23.624;2024-03-23T03:12:07;6.57;;;2.78;;
84670;SDS011;74898;42.716;23.624;2024-03-23T03:14:33;5.18;;;3.22;;
84670;SDS011;74898;42.716;23.624;2024-03-23T03:16:59;11.00;;;3.20;;
84670;SDS011;74898;42.716;23.624;2024-03-23T03:19:24;5.38;;;2.92;;
84670;SDS011;74898;42.716;23.624;2024-03-23T03:21:50;5.82;;;3.05;;
84670;SDS011;74898;42.716;23.624;2024-03-23T03:24:16;8.32;;;3.15;;
84670;SDS011;74898;42.716;23.624;2024-03-23T03:26:42;4.18;;;2.40;;
84670;SDS011;74898;42.716;23.624;2024-03-23T03:29:07;4.93;;;2.67;;
84670;SDS011;74898;42.716;23.624;2024-03-23T03:31:33;5.32;;;2.38;;
84670;SDS011;74898;42.716;23.624;2024-03-23T03:33:58;6.22;;;2.63;;
84670;SDS011;74898;42.716;23.624;2024-03-23T03:36:24;4.57;;;2.47;;
84670;SDS011;74898;42.716;23.624;2024-03-23T03:38:49;4.90;;;2.90;;
84670;SDS011;74898;42.716;23.624;2024-03-23T03:41:15;4.15;;;2.40;;
84670;SDS011;74898;42.716;23.624;2024-03-23T03:43:41;3.85;;;2.50;;
84670;SDS011;74898;42.716;23.624;2024-03-23T03:46:06;4.70;;;2.40;;
84670;SDS011;74898;42.716;23.624;2024-03-23T03:48:36;5.28;;;2.72;;
84670;SDS011;74898;42.716;23.624;2024-03-23T03:51:01;5.90;;;2.63;;
84670;SDS011;74898;42.716;23.624;2024-03-23T03:53:27;6.53;;;2.90;;
84670;SDS011;74898;42.716;23.624;2024-03-23T03:55:53;4.78;;;2.50;;
84670;SDS011;74898;42.716;23.624;2024-03-23T03:58:18;6.28;;;2.58;;
84670;SDS011;74898;42.716;23.624;2024-03-23T04:00:44;5.93;;;3.05;;
84670;SDS011;74898;42.716;23.624;2024-03-23T04:03:09;7.45;;;3.53;;
84670;SDS011;74898;42.716;23.624;2024-03-23T04:05:35;10.73;;;4.75;;
84670;SDS011;74898;42.716;23.624;2024-03-23T04:08:00;19.40;;;6.90;;
84670;SDS011;74898;42.716;23.624;2024-03-23T04:10:26;19.60;;;6.30;;
84670;SDS011;74898;42.716;23.624;2024-03-23T04:12:52;14.45;;;5.78;;
84670;SDS011;74898;42.716;23.624;2024-03-23T04:15:18;9.85;;;4.93;;
84670;SDS011;74898;42.716;23.624;2024-03-23T04:17:44;11.55;;;5.63;;
84670;SDS011;74898;42.716;23.624;2024-03-23T04:20:10;8.27;;;4.78;;
84670;SDS011;74898;42.716;23.624;2024-03-23T04:22:38;11.48;;;5.68;;
84670;SDS011;74898;42.716;23.624;2024-03-23T04:25:05;15.98;;;5.90;;
84670;SDS011;74898;42.716;23.624;2024-03-23T04:27:32;12.25;;;5.65;;
84670;SDS011;74898;42.716;23.624;2024-03-23T04:30:04;18.85;;;6.63;;
84670;SDS011;74898;42.716;23.624;2024-03-23T04:32:35;11.70;;;5.32;;
84670;SDS011;74898;42.716;23.624;2024-03-23T04:35:01;13.15;;;5.78;;
84670;SDS011;74898;42.716;23.624;2024-03-23T04:37:30;9.68;;;4.80;;
84670;SDS011;74898;42.716;23.624;2024-03-23T04:39:57;11.02;;;5.40;;
84670;SDS011;74898;42.716;23.624;2024-03-23T04:42:22;11.05;;;4.68;;
84670;SDS011;74898;42.716;23.624;2024-03-23T04:44:48;10.23;;;4.93;;
84670;SDS011;74898;42.716;23.624;2024-03-23T04:47:13;6.90;;;3.90;;
84670;SDS011;74898;42.716;23.624;2024-03-23T04:49:39;8.13;;;4.00;;
84670;SDS011;74898;42.716;23.624;2024-03-23T04:52:04;6.78;;;3.83;;
84670;SDS011;74898;42.716;23.624;2024-03-23T04:54:30;10.63;;;4.70;;
84670;SDS011;74898;42.716;23.624;2024-03-23T04:56:57;7.00;;;3.72;;
84670;SDS011;74898;42.716;23.624;2024-03-23T04:59:23;12.60;;;4.47;;
84670;SDS011;74898;42.716;23.624;2024-03-23T05:01:48;8.45;;;3.88;;
84670;SDS011;74898;42.716;23.624;2024-03-23T05:04:13;8.50;;;3.35;;
84670;SDS011;74898;42.716;23.624;2024-03-23T05:06:39;7.75;;;2.92;;
84670;SDS011;74898;42.716;23.624;2024-03-23T05:09:05;5.65;;;3.03;;
84670;SDS011;74898;42.716;23.624;2024-03-23T05:11:37;3.97;;;3.15;;
84670;SDS011;74898;42.716;23.624;2024-03-23T05:14:03;4.40;;;2.65;;
84670;SDS011;74898;42.716;23.624;2024-03-23T05:16:29;3.40;;;2.58;;
84670;SDS011;74898;42.716;23.624;2024-03-23T05:18:54;4.03;;;2.47;;
84670;SDS011;74898;42.716;23.624;2024-03-23T05:21:20;6.15;;;2.95;;
84670;SDS011;74898;42.716;23.624;2024-03-23T05:23:46;7.60;;;3.42;;
84670;SDS011;74898;42.716;23.624;2024-03-23T05:26:11;9.25;;;3.10;;
84670;SDS011;74898;42.716;23.624;2024-03-23T05:28:37;5.80;;;3.25;;
84670;SDS011;74898;42.716;23.624;2024-03-23T05:31:02;5.18;;;2.70;;
84670;SDS011;74898;42.716;23.624;2024-03-23T05:33:28;6.18;;;3.30;;
84670;SDS011;74898;42.716;23.624;2024-03-23T05:35:57;4.00;;;3.45;;
84670;SDS011;74898;42.716;23.624;2024-03-23T05:38:24;6.97;;;3.13;;
84670;SDS011;74898;42.716;23.624;2024-03-23T05:40:54;5.70;;;2.90;;
84670;SDS011;74898;42.716;23.624;2024-03-23T05:43:24;6.88;;;2.63;;
84670;SDS011;74898;42.716;23.624;2024-03-23T05:45:53;6.57;;;4.05;;
84670;SDS011;74898;42.716;23.624;2024-03-23T05:48:19;8.60;;;4.57;;
84670;SDS011;74898;42.716;23.624;2024-03-23T05:50:45;6.80;;;3.63;;
84670;SDS011;74898;42.716;23.624;2024-03-23T05:53:10;5.50;;;3.58;;
84670;SDS011;74898;42.716;23.624;2024-03-23T05:55:38;10.18;;;4.70;;
84670;SDS011;74898;42.716;23.624;2024-03-23T05:58:03;13.63;;;5.47;;
84670;SDS011;74898;42.716;23.624;2024-03-23T06:00:29;11.25;;;6.07;;
84670;SDS011;74898;42.716;23.624;2024-03-23T06:02:54;11.73;;;5.63;;
84670;SDS011;74898;42.716;23.624;2024-03-23T06:05:20;10.32;;;5.88;;
84670;SDS011;74898;42.716;23.624;2024-03-23T06:07:45;15.73;;;6.35;;
84670;SDS011;74898;42.716;23.624;2024-03-23T06:10:11;13.50;;;7.20;;
84670;SDS011;74898;42.716;23.624;2024-03-23T06:12:36;18.23;;;6.90;;
84670;SDS011;74898;42.716;23.624;2024-03-23T06:15:02;20.30;;;5.72;;
84670;SDS011;74898;42.716;23.624;2024-03-23T06:17:28;11.75;;;5.38;;
84670;SDS011;74898;42.716;23.624;2024-03-23T06:19:53;11.77;;;5.93;;
84670;SDS011;74898;42.716;23.624;2024-03-23T06:22:19;10.82;;;6.05;;
84670;SDS011;74898;42.716;23.624;2024-03-23T06:24:44;16.00;;;6.50;;
84670;SDS011;74898;42.716;23.624;2024-03-23T06:27:10;14.10;;;5.82;;
84670;SDS011;74898;42.716;23.624;2024-03-23T06:29:35;15.00;;;5.80;;
84670;SDS011;74898;42.716;23.624;2024-03-23T06:32:01;14.18;;;6.65;;
84670;SDS011;74898;42.716;23.624;2024-03-23T06:34:27;12.40;;;6.53;;
84670;SDS011;74898;42.716;23.624;2024-03-23T06:36:52;13.68;;;6.43;;
84670;SDS011;74898;42.716;23.624;2024-03-23T06:39:18;12.23;;;5.93;;
84670;SDS011;74898;42.716;23.624;2024-03-23T06:41:51;10.07;;;6.20;;
84670;SDS011;74898;42.716;23.624;2024-03-23T06:44:18;12.07;;;6.18;;
84670;SDS011;74898;42.716;23.624;2024-03-23T06:46:44;15.48;;;6.18;;
84670;SDS011;74898;42.716;23.624;2024-03-23T06:49:10;12.23;;;5.95;;
84670;SDS011;74898;42.716;23.624;2024-03-23T06:51:36;11.50;;;5.15;;
84670;SDS011;74898;42.716;23.624;2024-03-23T06:54:03;16.92;;;6.07;;
84670;SDS011;74898;42.716;23.624;2024-03-23T06:56:29;16.63;;;5.47;;
84670;SDS011;74898;42.716;23.624;2024-03-23T06:58:55;9.85;;;5.28;;
84670;SDS011;74898;42.716;23.624;2024-03-23T07:01:21;7.80;;;4.85;;
84670;SDS011;74898;42.716;23.624;2024-03-23T07:03:47;12.88;;;5.72;;
84670;SDS011;74898;42.716;23.624;2024-03-23T07:06:12;9.25;;;5.20;;
84670;SDS011;74898;42.716;23.624;2024-03-23T07:08:38;9.32;;;5.53;;
84670;SDS011;74898;42.716;23.624;2024-03-23T07:11:03;9.40;;;5.10;;
84670;SDS011;74898;42.716;23.624;2024-03-23T07:13:30;9.85;;;5.30;;
84670;SDS011;74898;42.716;23.624;2024-03-23T07:15:56;9.35;;;5.35;;
84670;SDS011;74898;42.716;23.624;2024-03-23T07:18:22;9.35;;;5.00;;
84670;SDS011;74898;42.716;23.624;2024-03-23T07:20:57;12.38;;;5.30;;
84670;SDS011;74898;42.716;23.624;2024-03-23T07:23:23;9.70;;;5.13;;
84670;SDS011;74898;42.716;23.624;2024-03-23T07:25:59;10.23;;;5.28;;
84670;SDS011;74898;42.716;23.624;2024-03-23T07:28:26;12.02;;;6.10;;
84670;SDS011;74898;42.716;23.624;2024-03-23T07:33:29;10.82;;;5.75;;
84670;SDS011;74898;42.716;23.624;2024-03-23T07:35:55;9.43;;;5.28;;
84670;SDS011;74898;42.716;23.624;2024-03-23T07:38:21;8.50;;;4.75;;
84670;SDS011;74898;42.716;23.624;2024-03-23T07:40:47;12.60;;;6.15;;
84670;SDS011;74898;42.716;23.624;2024-03-23T07:43:15;10.10;;;5.65;;
84670;SDS011;74898;42.716;23.624;2024-03-23T07:45:40;10.23;;;5.82;;
84670;SDS011;74898;42.716;23.624;2024-03-23T07:48:06;14.48;;;6.13;;
84670;SDS011;74898;42.716;23.624;2024-03-23T07:50:32;15.40;;;6.22;;
84670;SDS011;74898;42.716;23.624;2024-03-23T07:52:57;13.45;;;6.55;;
84670;SDS011;74898;42.716;23.624;2024-03-23T07:55:22;14.10;;;6.65;;
84670;SDS011;74898;42.716;23.624;2024-03-23T07:57:49;12.63;;;6.63;;
84670;SDS011;74898;42.716;23.624;2024-03-23T08:00:16;12.38;;;6.88;;
84670;SDS011;74898;42.716;23.624;2024-03-23T08:02:42;14.40;;;7.32;;
84670;SDS011;74898;42.716;23.624;2024-03-23T08:05:08;11.20;;;6.68;;
84670;SDS011;74898;42.716;23.624;2024-03-23T08:07:33;12.32;;;6.78;;
84670;SDS011;74898;42.716;23.624;2024-03-23T08:09:59;14.90;;;7.47;;
84670;SDS011;74898;42.716;23.624;2024-03-23T08:12:25;13.32;;;7.65;;
84670;SDS011;74898;42.716;23.624;2024-03-23T08:14:50;13.30;;;7.43;;
84670;SDS011;74898;42.716;23.624;2024-03-23T08:17:16;15.98;;;7.60;;
84670;SDS011;74898;42.716;23.624;2024-03-23T08:19:41;16.55;;;7.80;;
84670;SDS011;74898;42.716;23.624;2024-03-23T08:22:07;10.88;;;6.72;;
84670;SDS011;74898;42.716;23.624;2024-03-23T08:24:34;14.05;;;7.53;;
84670;SDS011;74898;42.716;23.624;2024-03-23T08:26:59;14.48;;;7.45;;
84670;SDS011;74898;42.716;23.624;2024-03-23T08:29:25;14.10;;;7.03;;
84670;SDS011;74898;42.716;23.624;2024-03-23T08:31:51;15.77;;;7.32;;
84670;SDS011;74898;42.716;23.624;2024-03-23T08:34:16;14.80;;;7.97;;
84670;SDS011;74898;42.716;23.624;2024-03-23T08:36:42;14.07;;;7.28;;
84670;SDS011;74898;42.716;23.624;2024-03-23T08:39:07;18.08;;;7.07;;
84670;SDS011;74898;42.716;23.624;2024-03-23T08:41:33;11.70;;;7.25;;
84670;SDS011;74898;42.716;23.624;2024-03-23T08:43:59;22.67;;;7.18;;
84670;SDS011;74898;42.716;23.624;2024-03-23T08:46:25;12.98;;;6.65;;
84670;SDS011;74898;42.716;23.624;2024-03-23T08:48:50;14.52;;;6.93;;
84670;SDS011;74898;42.716;23.624;2024-03-23T08:51:17;10.98;;;6.00;;
84670;SDS011;74898;42.716;23.624;2024-03-23T08:53:43;12.38;;;6.45;;
84670;SDS011;74898;42.716;23.624;2024-03-23T08:56:10;11.52;;;5.80;;
84670;SDS011;74898;42.716;23.624;2024-03-23T08:58:37;9.05;;;5.68;;
84670;SDS011;74898;42.716;23.624;2024-03-23T09:03:31;9.77;;;5.95;;
84670;SDS011;74898;42.716;23.624;2024-03-23T09:05:57;8.52;;;5.53;;
84670;SDS011;74898;42.716;23.624;2024-03-23T09:08:23;10.38;;;6.07;;
84670;SDS011;74898;42.716;23.624;2024-03-23T09:10:49;12.00;;;5.68;;
84670;SDS011;74898;42.716;23.624;2024-03-23T09:13:15;9.80;;;6.20;;
84670;SDS011;74898;42.716;23.624;2024-03-23T09:15:50;10.30;;;5.65;;
84670;SDS011;74898;42.716;23.624;2024-03-23T09:18:17;11.10;;;6.15;;
84670;SDS011;74898;42.716;23.624;2024-03-23T09:20:42;11.43;;;5.47;;
84670;SDS011;74898;42.716;23.624;2024-03-23T09:23:08;11.38;;;6.05;;
84670;SDS011;74898;42.716;23.624;2024-03-23T09:25:40;8.35;;;5.15;;
84670;SDS011;74898;42.716;23.624;2024-03-23T09:28:06;11.43;;;5.82;;
84670;SDS011;74898;42.716;23.624;2024-03-23T09:30:33;8.48;;;5.20;;
84670;SDS011;74898;42.716;23.624;2024-03-23T09:32:59;7.20;;;3.90;;
84670;SDS011;74898;42.716;23.624;2024-03-23T09:35:26;9.30;;;4.38;;
84670;SDS011;74898;42.716;23.624;2024-03-23T09:37:52;6.07;;;4.15;;
84670;SDS011;74898;42.716;23.624;2024-03-23T09:40:17;4.97;;;3.50;;
84670;SDS011;74898;42.716;23.624;2024-03-23T09:42:43;6.85;;;3.78;;
84670;SDS011;74898;42.716;23.624;2024-03-23T09:45:22;5.80;;;3.85;;
84670;SDS011;74898;42.716;23.624;2024-03-23T09:47:52;5.47;;;3.30;;
84670;SDS011;74898;42.716;23.624;2024-03-23T09:50:18;4.53;;;3.05;;
84670;SDS011;74898;42.716;23.624;2024-03-23T09:52:45;5.65;;;3.50;;
84670;SDS011;74898;42.716;23.624;2024-03-23T09:55:11;4.05;;;2.90;;
84670;SDS011;74898;42.716;23.624;2024-03-23T09:57:37;8.98;;;4.25;;
84670;SDS011;74898;42.716;23.624;2024-03-23T10:00:03;5.35;;;3.25;;
84670;SDS011;74898;42.716;23.624;2024-03-23T10:02:29;7.45;;;3.22;;
84670;SDS011;74898;42.716;23.624;2024-03-23T10:04:55;6.13;;;3.40;;
84670;SDS011;74898;42.716;23.624;2024-03-23T10:07:22;3.53;;;3.15;;
84670;SDS011;74898;42.716;23.624;2024-03-23T10:09:48;6.40;;;3.63;;
84670;SDS011;74898;42.716;23.624;2024-03-23T10:12:17;5.93;;;3.88;;
84670;SDS011;74898;42.716;23.624;2024-03-23T10:19:47;3.88;;;2.90;;
84670;SDS011;74898;42.716;23.624;2024-03-23T10:22:23;5.10;;;3.15;;
84670;SDS011;74898;42.716;23.624;2024-03-23T10:24:49;8.98;;;4.32;;
84670;SDS011;74898;42.716;23.624;2024-03-23T10:27:19;5.93;;;3.50;;
84670;SDS011;74898;42.716;23.624;2024-03-23T10:29:45;7.05;;;3.33;;
84670;SDS011;74898;42.716;23.624;2024-03-23T10:32:12;5.65;;;3.50;;
84670;SDS011;74898;42.716;23.624;2024-03-23T10:34:39;6.72;;;3.40;;
84670;SDS011;74898;42.716;23.624;2024-03-23T10:37:05;5.03;;;3.33;;
84670;SDS011;74898;42.716;23.624;2024-03-23T10:39:35;6.55;;;3.70;;
84670;SDS011;74898;42.716;23.624;2024-03-23T10:42:02;5.00;;;3.67;;
84670;SDS011;74898;42.716;23.624;2024-03-23T10:44:29;5.45;;;3.20;;
84670;SDS011;74898;42.716;23.624;2024-03-23T10:46:56;4.10;;;3.40;;
84670;SDS011;74898;42.716;23.624;2024-03-23T10:49:29;4.32;;;3.35;;
84670;SDS011;74898;42.716;23.624;2024-03-23T10:51:57;4.60;;;3.08;;
84670;SDS011;74898;42.716;23.624;2024-03-23T10:54:30;7.15;;;3.45;;
84670;SDS011;74898;42.716;23.624;2024-03-23T10:56:59;6.32;;;3.33;;
84670;SDS011;74898;42.716;23.624;2024-03-23T10:59:30;20.52;;;3.88;;
84670;SDS011;74898;42.716;23.624;2024-03-23T11:02:00;4.72;;;2.83;;
84670;SDS011;74898;42.716;23.624;2024-03-23T11:04:31;3.63;;;3.00;;
84670;SDS011;74898;42.716;23.624;2024-03-23T11:07:00;4.72;;;3.35;;
84670;SDS011;74898;42.716;23.624;2024-03-23T11:09:42;4.88;;;2.70;;
84670;SDS011;74898;42.716;23.624;2024-03-23T11:14:48;6.45;;;3.78;;
84670;SDS011;74898;42.716;23.624;2024-03-23T11:17:19;4.47;;;2.95;;
84670;SDS011;74898;42.716;23.624;2024-03-23T11:22:45;5.05;;;3.42;;
84670;SDS011;74898;42.716;23.624;2024-03-23T11:25:21;4.88;;;2.83;;
84670;SDS011;74898;42.716;23.624;2024-03-23T11:28:12;4.10;;;2.78;;
84670;SDS011;74898;42.716;23.624;2024-03-23T11:30:37;4.03;;;2.60;;
84670;SDS011;74898;42.716;23.624;2024-03-23T11:33:05;5.22;;;3.08;;
84670;SDS011;74898;42.716;23.624;2024-03-23T11:35:35;3.95;;;2.40;;
84670;SDS011;74898;42.716;23.624;2024-03-23T11:40:42;3.63;;;2.33;;
84670;SDS011;74898;42.716;23.624;2024-03-23T11:43:17;3.92;;;2.42;;
84670;SDS011;74898;42.716;23.624;2024-03-23T11:45:47;3.60;;;2.50;;
84670;SDS011;74898;42.716;23.624;2024-03-23T11:48:18;4.30;;;2.80;;
84670;SDS011;74898;42.716;23.624;2024-03-23T11:50:49;3.15;;;2.50;;
84670;SDS011;74898;42.716;23.624;2024-03-23T11:55:55;4.47;;;3.00;;
84670;SDS011;74898;42.716;23.624;2024-03-23T11:58:22;4.45;;;3.05;;
84670;SDS011;74898;42.716;23.624;2024-03-23T12:00:56;3.80;;;2.60;;
84670;SDS011;74898;42.716;23.624;2024-03-23T12:03:23;5.43;;;3.00;;
84670;SDS011;74898;42.716;23.624;2024-03-23T12:05:53;4.90;;;3.05;;
84670;SDS011;74898;42.716;23.624;2024-03-23T12:08:20;10.13;;;4.70;;
84670;SDS011;74898;42.716;23.624;2024-03-23T12:10:51;4.50;;;2.83;;
84670;SDS011;74898;42.716;23.624;2024-03-23T12:13:18;3.00;;;2.33;;
84670;SDS011;74898;42.716;23.624;2024-03-23T12:15:45;4.88;;;3.00;;
84670;SDS011;74898;42.716;23.624;2024-03-23T12:18:12;3.22;;;2.42;;
84670;SDS011;74898;42.716;23.624;2024-03-23T12:20:38;3.60;;;3.25;;
84670;SDS011;74898;42.716;23.624;2024-03-23T12:23:07;4.15;;;3.00;;
84670;SDS011;74898;42.716;23.624;2024-03-23T12:25:35;4.13;;;2.65;;
84670;SDS011;74898;42.716;23.624;2024-03-23T12:28:01;4.30;;;2.80;;
84670;SDS011;74898;42.716;23.624;2024-03-23T12:30:27;6.63;;;2.97;;
84670;SDS011;74898;42.716;23.624;2024-03-23T12:32:53;3.65;;;2.50;;
84670;SDS011;74898;42.716;23.624;2024-03-23T12:35:18;7.05;;;3.08;;
84670;SDS011;74898;42.716;23.624;2024-03-23T12:37:44;5.25;;;3.00;;
84670;SDS011;74898;42.716;23.624;2024-03-23T12:40:10;6.43;;;2.90;;
84670;SDS011;74898;42.716;23.624;2024-03-23T12:42:36;3.60;;;2.70;;
84670;SDS011;74898;42.716;23.624;2024-03-23T12:45:02;6.53;;;2.95;;
84670;SDS011;74898;42.716;23.624;2024-03-23T12:47:28;7.72;;;2.78;;
84670;SDS011;74898;42.716;23.624;2024-03-23T12:49:55;3.88;;;2.65;;
84670;SDS011;74898;42.716;23.624;2024-03-23T12:52:21;2.88;;;2.47;;
84670;SDS011;74898;42.716;23.624;2024-03-23T12:54:48;7.60;;;3.00;;
84670;SDS011;74898;42.716;23.624;2024-03-23T12:57:13;5.72;;;2.70;;
84670;SDS011;74898;42.716;23.624;2024-03-23T12:59:39;6.13;;;2.90;;
84670;SDS011;74898;42.716;23.624;2024-03-23T13:02:05;6.40;;;2.63;;
84670;SDS011;74898;42.716;23.624;2024-03-23T13:06:57;5.95;;;3.15;;
84670;SDS011;74898;42.716;23.624;2024-03-23T13:09:23;4.47;;;3.10;;
84670;SDS011;74898;42.716;23.624;2024-03-23T13:11:48;4.93;;;2.95;;
84670;SDS011;74898;42.716;23.624;2024-03-23T13:14:14;6.30;;;3.30;;
84670;SDS011;74898;42.716;23.624;2024-03-23T13:16:41;3.58;;;2.95;;
84670;SDS011;74898;42.716;23.624;2024-03-23T13:19:07;5.20;;;3.13;;
84670;SDS011;74898;42.716;23.624;2024-03-23T13:21:32;4.63;;;3.67;;
84670;SDS011;74898;42.716;23.624;2024-03-23T13:23:58;7.57;;;3.50;;
84670;SDS011;74898;42.716;23.624;2024-03-23T13:26:23;6.57;;;3.45;;
84670;SDS011;74898;42.716;23.624;2024-03-23T13:28:49;4.85;;;3.10;;
84670;SDS011;74898;42.716;23.624;2024-03-23T13:31:14;7.25;;;3.22;;
84670;SDS011;74898;42.716;23.624;2024-03-23T13:33:40;5.05;;;3.40;;
84670;SDS011;74898;42.716;23.624;2024-03-23T13:36:07;6.00;;;3.45;;
84670;SDS011;74898;42.716;23.624;2024-03-23T13:38:33;8.05;;;4.18;;
84670;SDS011;74898;42.716;23.624;2024-03-23T13:40:59;5.88;;;3.85;;
84670;SDS011;74898;42.716;23.624;2024-03-23T13:43:26;6.60;;;3.72;;
84670;SDS011;74898;42.716;23.624;2024-03-23T13:48:19;8.00;;;3.45;;
84670;SDS011;74898;42.716;23.624;2024-03-23T13:50:45;6.97;;;4.00;;
84670;SDS011;74898;42.716;23.624;2024-03-23T13:53:13;7.95;;;3.70;;
84670;SDS011;74898;42.716;23.624;2024-03-23T13:55:46;17.30;;;4.65;;
84670;SDS011;74898;42.716;23.624;2024-03-23T13:58:13;6.70;;;3.72;;
84670;SDS011;74898;42.716;23.624;2024-03-23T14:00:39;7.18;;;3.83;;
84670;SDS011;74898;42.716;23.624;2024-03-23T14:03:04;4.72;;;3.63;;
84670;SDS011;74898;42.716;23.624;2024-03-23T14:05:30;5.07;;;3.40;;
84670;SDS011;74898;42.716;23.624;2024-03-23T14:07:56;10.48;;;3.90;;
84670;SDS011;74898;42.716;23.624;2024-03-23T14:10:21;8.18;;;3.83;;
84670;SDS011;74898;42.716;23.624;2024-03-23T14:12:47;10.27;;;3.70;;
84670;SDS011;74898;42.716;23.624;2024-03-23T14:15:12;6.97;;;4.13;;
84670;SDS011;74898;42.716;23.624;2024-03-23T14:17:38;8.98;;;4.75;;
84670;SDS011;74898;42.716;23.624;2024-03-23T14:20:04;4.07;;;3.35;;
84670;SDS011;74898;42.716;23.624;2024-03-23T14:22:31;11.02;;;3.72;;
84670;SDS011;74898;42.716;23.624;2024-03-23T14:24:57;5.30;;;3.70;;
84670;SDS011;74898;42.716;23.624;2024-03-23T14:27:23;7.25;;;3.42;;
84670;SDS011;74898;42.716;23.624;2024-03-23T14:29:49;5.07;;;3.10;;
84670;SDS011;74898;42.716;23.624;2024-03-23T14:32:15;4.95;;;3.38;;
84670;SDS011;74898;42.716;23.624;2024-03-23T14:34:40;6.47;;;3.90;;
84670;SDS011;74898;42.716;23.624;2024-03-23T14:37:06;7.20;;;3.63;;
84670;SDS011;74898;42.716;23.624;2024-03-23T14:39:32;6.97;;;3.10;;
84670;SDS011;74898;42.716;23.624;2024-03-23T14:42:00;6.38;;;3.17;;
84670;SDS011;74898;42.716;23.624;2024-03-23T14:44:28;6.47;;;3.22;;
84670;SDS011;74898;42.716;23.624;2024-03-23T14:46:54;7.45;;;3.22;;
84670;SDS011;74898;42.716;23.624;2024-03-23T14:49:20;3.78;;;2.60;;
84670;SDS011;74898;42.716;23.624;2024-03-23T14:51:46;2.97;;;2.35;;
84670;SDS011;74898;42.716;23.624;2024-03-23T14:54:11;6.55;;;3.08;;
84670;SDS011;74898;42.716;23.624;2024-03-23T14:56:38;5.63;;;2.45;;
84670;SDS011;74898;42.716;23.624;2024-03-23T14:59:04;3.22;;;2.17;;
84670;SDS011;74898;42.716;23.624;2024-03-23T15:03:57;3.53;;;2.10;;
84670;SDS011;74898;42.716;23.624;2024-03-23T15:06:22;3.33;;;2.47;;
84670;SDS011;74898;42.716;23.624;2024-03-23T15:08:48;9.80;;;2.50;;
84670;SDS011;74898;42.716;23.624;2024-03-23T15:11:14;3.22;;;2.28;;
84670;SDS011;74898;42.716;23.624;2024-03-23T15:13:39;6.15;;;2.22;;
84670;SDS011;74898;42.716;23.624;2024-03-23T15:16:05;5.07;;;2.22;;
84670;SDS011;74898;42.716;23.624;2024-03-23T15:18:31;3.13;;;2.35;;
84670;SDS011;74898;42.716;23.624;2024-03-23T15:20:58;3.92;;;1.73;;
84670;SDS011;74898;42.716;23.624;2024-03-23T15:23:28;5.13;;;2.13;;
84670;SDS011;74898;42.716;23.624;2024-03-23T15:25:58;3.83;;;2.17;;
84670;SDS011;74898;42.716;23.624;2024-03-23T15:28:24;2.72;;;2.03;;
84670;SDS011;74898;42.716;23.624;2024-03-23T15:30:53;4.85;;;1.80;;
84670;SDS011;74898;42.716;23.624;2024-03-23T15:33:18;2.00;;;1.65;;
84670;SDS011;74898;42.716;23.624;2024-03-23T15:35:44;3.38;;;1.80;;
84670;SDS011;74898;42.716;23.624;2024-03-23T15:38:09;3.40;;;1.55;;
84670;SDS011;74898;42.716;23.624;2024-03-23T15:40:35;5.45;;;1.77;;
84670;SDS011;74898;42.716;23.624;2024-03-23T15:43:01;3.47;;;2.00;;
84670;SDS011;74898;42.716;23.624;2024-03-23T15:45:27;2.75;;;1.75;;
84670;SDS011;74898;42.716;23.624;2024-03-23T15:47:52;5.75;;;2.08;;
84670;SDS011;74898;42.716;23.624;2024-03-23T15:50:18;4.55;;;1.92;;